createdAt,value
2019-03-24T00:05:17.291Z,145.50
2019-03-24T00:11:16.559Z,147.90
2019-03-24T00:17:16.262Z,138.90
2019-03-24T00:23:16.262Z,139.40
2019-03-24T00:29:16.287Z,144.00
2019-03-24T00:35:16.243Z,143.50
2019-03-24T00:41:16.260Z,140.50
2019-03-24T00:47:16.285Z,136.60
2019-03-24T00:53:16.332Z,149.10
2019-03-24T00:59:16.388Z,136.10
2019-03-24T01:08:15.242Z,137.60
2019-03-24T01:14:15.247Z,137.00
2019-03-24T01:20:15.546Z,136.10
2019-03-24T01:26:15.232Z,130.70
2019-03-24T01:32:15.298Z,125.70
2019-03-24T01:38:14.766Z,122.90
2019-03-24T01:48:55.332Z,126.40
2019-03-24T01:54:55.323Z,125.70
2019-03-24T02:00:55.321Z,125.50
2019-03-24T02:06:55.348Z,129.00
2019-03-24T02:12:55.399Z,126.30
2019-03-24T02:18:55.353Z,128.90
2019-03-24T02:24:55.358Z,122.50
2019-03-24T02:30:55.349Z,129.70
2019-03-24T02:36:55.386Z,127.20
2019-03-24T02:42:55.401Z,134.60
2019-03-24T02:48:55.384Z,131.30
2019-03-24T02:54:55.381Z,131.90
2019-03-24T03:00:58.431Z,135.10
2019-03-24T03:06:55.392Z,134.60
2019-03-24T03:12:55.358Z,141.40
2019-03-24T03:18:55.350Z,142.70
2019-03-24T03:24:55.392Z,145.20
2019-03-24T03:30:55.383Z,152.20
2019-03-24T03:36:55.368Z,154.60
2019-03-24T03:42:55.374Z,144.90
2019-03-24T03:48:55.366Z,149.10
2019-03-24T03:54:55.392Z,159.20
2019-03-24T04:00:55.343Z,147.30
2019-03-24T04:06:55.374Z,148.60
2019-03-24T04:12:55.381Z,166.40
2019-03-24T04:18:55.357Z,159.10
2019-03-24T04:24:55.385Z,170.30
2019-03-24T04:30:55.367Z,166.20
2019-03-24T04:36:55.368Z,163.90
2019-03-24T04:42:55.377Z,152.60
2019-03-24T04:48:55.368Z,150.20
2019-03-24T04:54:55.388Z,150.50
2019-03-24T05:00:56.092Z,149.20
2019-03-24T05:06:55.424Z,150.20
2019-03-24T05:12:55.375Z,147.80
2019-03-24T05:18:55.387Z,144.00
2019-03-24T05:24:55.400Z,149.50
2019-03-24T05:30:55.383Z,148.10
2019-03-24T05:36:55.412Z,146.30
2019-03-24T05:42:55.461Z,149.00
2019-03-24T05:48:55.432Z,146.80
2019-03-24T05:54:55.433Z,147.50
2019-03-24T06:00:55.401Z,156.30
2019-03-24T06:06:55.402Z,156.70
2019-03-24T06:12:55.394Z,140.20
2019-03-24T06:18:55.382Z,144.20
2019-03-24T06:24:55.421Z,139.70
2019-03-24T06:30:55.418Z,141.50
2019-03-24T06:36:55.415Z,143.80
2019-03-24T06:42:55.382Z,147.80
2019-03-24T06:48:55.435Z,146.80
2019-03-24T06:54:55.516Z,142.40
2019-03-24T07:00:55.409Z,138.40
2019-03-24T07:06:55.417Z,124.00
2019-03-24T07:12:55.430Z,118.40
2019-03-24T07:18:55.447Z,111.10
2019-03-24T07:24:55.529Z,105.80
2019-03-24T07:30:55.420Z,105.80
2019-03-24T07:36:55.472Z,92.60
2019-03-24T07:42:55.437Z,98.90
2019-03-24T07:48:55.476Z,89.90
2019-03-24T07:54:55.429Z,83.50
2019-03-24T08:00:55.434Z,81.50
2019-03-24T08:06:55.495Z,82.40
2019-03-24T08:12:55.665Z,84.10
2019-03-24T08:18:55.467Z,80.20
2019-03-24T08:24:55.484Z,73.40
2019-03-24T08:30:55.538Z,73.10
2019-03-24T08:36:55.519Z,73.60
2019-03-24T08:42:55.451Z,69.30
2019-03-24T08:48:55.512Z,72.00
2019-03-24T08:54:55.498Z,67.10
2019-03-24T09:00:55.593Z,67.40
2019-03-24T09:06:55.491Z,69.20
2019-03-24T09:12:55.624Z,69.20
2019-03-24T09:18:55.486Z,63.70
2019-03-24T09:24:55.515Z,61.80
2019-03-24T09:30:55.503Z,59.60
2019-03-24T09:36:55.479Z,62.00
2019-03-24T09:42:55.478Z,64.80
2019-03-24T09:49:03.151Z,61.10
2019-03-24T09:54:55.495Z,64.40
2019-03-24T10:00:55.543Z,61.10
2019-03-24T10:06:55.655Z,67.30
2019-03-24T10:12:55.611Z,63.60
2019-03-24T10:18:55.669Z,61.30
2019-03-24T10:24:55.568Z,61.40
2019-03-24T10:30:55.642Z,59.20
2019-03-24T10:36:55.565Z,58.00
2019-03-24T10:42:55.627Z,57.90
2019-03-24T10:48:55.536Z,57.70
2019-03-24T10:54:55.542Z,60.20
2019-03-24T11:00:55.620Z,59.50
2019-03-24T11:06:55.644Z,57.80
2019-03-24T11:12:55.619Z,59.10
2019-03-24T11:18:55.573Z,60.90
2019-03-24T11:24:55.599Z,61.60
2019-03-24T11:30:55.617Z,58.60
2019-03-24T11:36:55.578Z,59.60
2019-03-24T11:42:56.252Z,59.20
2019-03-24T11:48:55.590Z,60.30
2019-03-24T11:54:55.594Z,56.70
2019-03-24T12:00:55.604Z,62.40
2019-03-24T12:06:55.664Z,63.10
2019-03-24T12:12:56.431Z,60.80
2019-03-24T12:18:55.608Z,61.10
2019-03-24T12:24:55.617Z,57.00
2019-03-24T12:30:55.617Z,59.60
2019-03-24T12:36:55.618Z,58.70
2019-03-24T12:42:55.666Z,58.00
2019-03-24T12:48:55.678Z,59.00
2019-03-24T12:59:53.261Z,61.70
2019-03-24T13:05:53.183Z,59.30
2019-03-24T13:11:53.487Z,57.90
2019-03-24T13:17:53.194Z,54.80
2019-03-24T13:23:53.217Z,60.30
2019-03-24T13:29:53.203Z,61.00
2019-03-24T13:35:53.186Z,60.60
2019-03-24T13:41:53.254Z,56.70
2019-03-24T13:47:53.240Z,55.60
2019-03-24T13:53:53.337Z,56.20
2019-03-24T13:59:53.281Z,60.00
2019-03-24T14:05:53.243Z,57.80
2019-03-24T14:11:53.302Z,57.50
2019-03-24T14:17:53.241Z,57.40
2019-03-24T14:23:53.358Z,55.70
2019-03-24T14:29:53.293Z,55.30
2019-03-24T14:35:54.373Z,56.90
2019-03-24T14:41:53.314Z,58.60
2019-03-24T14:47:53.266Z,61.40
2019-03-24T14:53:53.360Z,62.80
2019-03-24T14:59:53.374Z,62.50
2019-03-24T15:05:53.269Z,62.00
2019-03-24T15:11:53.360Z,62.60
2019-03-24T15:17:53.390Z,63.10
2019-03-24T15:23:53.294Z,65.70
2019-03-24T15:29:53.342Z,64.00
2019-03-24T15:35:53.319Z,64.90
2019-03-24T15:41:53.342Z,64.90
2019-03-24T15:47:53.326Z,67.60
2019-03-24T15:53:53.429Z,64.90
2019-03-24T15:59:53.389Z,66.30
2019-03-24T16:05:53.349Z,61.30
2019-03-24T16:11:53.373Z,62.40
2019-03-24T16:17:53.369Z,61.60
2019-03-24T16:23:54.678Z,58.20
2019-03-24T16:29:53.339Z,60.40
2019-03-24T16:35:53.409Z,57.80
2019-03-24T16:41:53.417Z,55.20
2019-03-24T16:47:53.368Z,58.80
2019-03-24T16:53:53.360Z,56.00
2019-03-24T16:59:53.370Z,55.80
2019-03-24T17:05:53.372Z,48.90
2019-03-24T17:11:53.390Z,46.60
2019-03-24T17:17:53.392Z,43.80
2019-03-24T17:23:53.483Z,45.20
2019-03-24T17:29:53.355Z,44.30
2019-03-24T17:35:53.501Z,41.40
2019-03-24T17:41:53.402Z,42.40
2019-03-24T17:47:53.391Z,41.70
2019-03-24T17:53:54.457Z,39.50
2019-03-24T17:59:53.444Z,37.50
2019-03-24T18:05:54.495Z,35.10
2019-03-24T18:11:53.403Z,33.20
2019-03-24T18:17:53.470Z,31.00
2019-03-24T18:23:53.403Z,26.10
2019-03-24T18:29:53.453Z,19.40
2019-03-24T18:35:53.596Z,18.70
2019-03-24T18:41:53.546Z,18.20
2019-03-24T18:47:53.707Z,18.80
2019-03-24T18:53:53.445Z,20.20
2019-03-24T18:59:53.575Z,19.00
2019-03-24T19:05:53.458Z,18.30
2019-03-24T19:11:53.440Z,18.50
2019-03-24T19:17:53.476Z,20.50
2019-03-24T19:23:55.953Z,21.30
2019-03-24T19:29:54.914Z,22.20
2019-03-24T19:35:53.538Z,21.00
2019-03-24T19:41:53.465Z,21.80
2019-03-24T19:47:53.495Z,25.20
2019-03-24T19:53:53.494Z,20.40
2019-03-24T19:59:53.587Z,29.40
2019-03-24T20:05:53.522Z,25.20
2019-03-24T20:11:53.642Z,23.70
2019-03-24T20:17:53.585Z,24.20
2019-03-24T20:23:53.506Z,31.60
2019-03-24T20:29:53.744Z,25.80
2019-03-24T20:35:53.578Z,23.60
2019-03-24T20:41:53.473Z,23.10
2019-03-24T20:47:53.705Z,24.80
2019-03-24T20:53:53.761Z,25.10
2019-03-24T20:59:53.551Z,23.80
2019-03-24T21:05:53.949Z,27.20
2019-03-24T21:11:54.169Z,28.40
2019-03-24T21:17:53.815Z,27.80
2019-03-24T21:23:53.558Z,27.70
2019-03-24T21:29:53.618Z,27.50
2019-03-24T21:35:53.562Z,26.00
2019-03-24T21:41:55.068Z,26.60
2019-03-24T21:47:53.774Z,27.10
2019-03-24T21:53:55.067Z,26.30
2019-03-24T21:59:53.690Z,27.50
2019-03-24T22:05:53.556Z,27.80
2019-03-24T22:11:53.610Z,25.40
2019-03-24T22:17:53.585Z,25.90
2019-03-24T22:23:53.615Z,26.80
2019-03-24T22:29:53.615Z,28.90
2019-03-24T22:35:53.699Z,27.90
2019-03-24T22:41:53.663Z,25.80
2019-03-24T22:47:53.704Z,25.40
2019-03-24T22:54:02.954Z,28.30
2019-03-24T22:59:53.698Z,25.20
2019-03-24T23:05:53.564Z,23.90
2019-03-24T23:11:55.140Z,23.30
2019-03-24T23:17:53.643Z,24.20
2019-03-24T23:23:53.629Z,25.40
2019-03-24T23:29:53.636Z,20.50
2019-03-24T23:35:53.618Z,20.90
2019-03-24T23:41:53.622Z,22.10
2019-03-24T23:47:53.740Z,23.30
2019-03-24T23:53:54.982Z,20.90
2019-03-24T23:59:53.617Z,24.20
